Wilson Hook — P3TW9 — position and weather

sailwx.info

Track history (hours):
 
Tides and Currents Weather Stations Pressure Air Temp Water Temp Dewpoint Dewpoint Depression Visibility Wind Speed Wind Dir Waves Ship Positions

Wilson Hook

Last reported at 2018-Jun-25 08:00 UTC. Time now 2018-Jun-25 08:20 UTC.
Position N 70°59' E 026°11'.

Length 90 m; draft 5.7 m.

Type: Ship. MMSI: 210604000.

Date/timePositionNaut miles runAvg speedWind from/ knotsBaromVisibWave heightAir tempDewpointWater temp
2018-Jun-25 08:00N 70°59' E 026°11'5 9.3
2018-Jun-25 07:30N 71°01' E 026°23'5 9.7
2018-Jun-25 06:59N 71°03' E 026°38'510.9
2018-Jun-25 06:30N 71°04' E 026°53'610.9
2018-Jun-25 06:00N 71°06' E 027°09'510.3
2018-Jun-25 05:30N 71°08' E 027°24'510.2
2018-Jun-25 04:59N 71°10' E 027°39'5 9.6
2018-Jun-25 04:31N 71°09' E 027°53'510.1
2018-Jun-25 04:00N 71°08' E 028°09'5 9.5
2018-Jun-25 03:30N 71°06' E 028°21'510.5
2018-Jun-25 03:00N 71°02' E 028°32'5 9.5
2018-Jun-25 02:30N 70°58' E 028°37'510.3
2018-Jun-25 02:00N 70°52' E 028°34'511.1
2018-Jun-25 01:30N 70°47' E 028°31'611.3
2018-Jun-25 01:00N 70°41' E 028°27'611.4
2018-Jun-25 00:29N 70°36' E 028°24'4 8.3
2018-Jun-24 23:59N 70°32' E 028°26'3 7.2
2018-Jun-24 23:30N 70°28' E 028°29'0 0.0
2018-Jun-24 23:00N 70°28' E 028°29'0 0.0
2018-Jun-24 22:30N 70°28' E 028°29'0 0.0
2018-Jun-24 22:00N 70°28' E 028°29'0 0.0
2018-Jun-24 21:30N 70°28' E 028°29'0 0.0
2018-Jun-24 21:00N 70°28' E 028°29'0 0.0
2018-Jun-24 20:30N 70°28' E 028°29'0 0.0
2018-Jun-24 20:00N 70°28' E 028°29'0 0.0
2018-Jun-24 19:30N 70°28' E 028°29'0 0.0
2018-Jun-24 19:00N 70°28' E 028°29'0 0.0
2018-Jun-24 18:30N 70°28' E 028°29'0 0.0
2018-Jun-24 18:00N 70°28' E 028°29'0 0.0
2018-Jun-24 17:30N 70°28' E 028°29'0 0.0
2018-Jun-24 17:00N 70°28' E 028°29'0 0.0
2018-Jun-24 16:30N 70°28' E 028°29'0 0.0
2018-Jun-24 16:00N 70°28' E 028°29'0 0.0
2018-Jun-24 15:30N 70°28' E 028°29'0 0.0
2018-Jun-24 15:00N 70°28' E 028°29'0 0.0
2018-Jun-24 14:30N 70°28' E 028°29'0 0.0
2018-Jun-24 14:00N 70°28' E 028°29'0 0.0
2018-Jun-24 13:30N 70°28' E 028°29'0 0.0
2018-Jun-24 13:00N 70°28' E 028°29'0 0.0
2018-Jun-24 12:30N 70°28' E 028°29'0 0.0
2018-Jun-24 12:00N 70°28' E 028°29'0 0.0
2018-Jun-24 11:31N 70°28' E 028°29'2 3.0
2018-Jun-24 11:00N 70°30' E 028°29'4 7.9
2018-Jun-24 10:30N 70°33' E 028°21'510.7
2018-Jun-24 10:00N 70°38' E 028°25'611.0
2018-Jun-24 09:29N 70°43' E 028°29'510.8
2018-Jun-24 09:00N 70°49' E 028°32'611.5
2018-Jun-24 08:29N 70°55' E 028°35'511.1
2018-Jun-24 08:00N 70°60' E 028°36'611.6
2018-Jun-24 07:30N 71°04' E 028°25'610.9
2018-Jun-24 06:59N 71°08' E 028°11'611.5
2018-Jun-24 06:30N 71°08' E 027°54'510.9
2018-Jun-24 06:00N 71°09' E 027°37'611.6
2018-Jun-24 05:31N 71°07' E 027°20'612.1
2018-Jun-24 04:59N 71°05' E 027°02'611.6
2018-Jun-24 04:30N 71°03' E 026°46'611.7
2018-Jun-24 04:00N 71°01' E 026°29'611.7
2018-Jun-24 03:30N 70°58' E 026°12'5 9.4
2018-Jun-24 03:00N 70°58' E 025°58'4 8.5
2018-Jun-24 02:31N 70°59' E 026°10'5 9.1
2018-Jun-24 02:00N 71°03' E 026°17'611.3
2018-Jun-24 01:30N 71°08' E 026°07'611.4
2018-Jun-24 01:00N 71°11' E 025°53'612.3
2018-Jun-24 00:29N 71°12' E 025°33'612.7
2018-Jun-24 00:00N 71°12' E 025°14'612.0
2018-Jun-23 23:30N 71°11' E 024°55'611.7
2018-Jun-23 23:00N 71°10' E 024°38'611.8
2018-Jun-23 22:30N 71°09' E 024°19'612.2
2018-Jun-23 22:00N 71°08' E 024°01'611.7
2018-Jun-23 21:29N 71°06' E 023°44'611.9
2018-Jun-23 21:00N 71°04' E 023°28'612.0
2018-Jun-23 20:30N 71°01' E 023°11'612.2
2018-Jun-23 20:00N 70°58' E 022°55'612.0
2018-Jun-23 19:29N 70°55' E 022°39'612.0
2018-Jun-23 18:59N 70°52' E 022°23'612.3
2018-Jun-23 18:30N 70°49' E 022°07'612.2
2018-Jun-23 18:00N 70°46' E 021°51'612.0
2018-Jun-23 17:29N 70°41' E 021°38'611.5
2018-Jun-23 17:00N 70°37' E 021°27'611.7
2018-Jun-23 16:30N 70°33' E 021°16'611.7
2018-Jun-23 16:00N 70°28' E 021°05'611.4
2018-Jun-23 15:30N 70°24' E 020°54'611.3
2018-Jun-23 15:01N 70°19' E 020°43'611.7
2018-Jun-23 14:30N 70°15' E 020°32'611.6
2018-Jun-23 13:59N 70°10' E 020°21'511.2
2018-Jun-23 13:30N 70°05' E 020°14'4 8.7
2018-Jun-23 13:00N 70°01' E 020°18'511.1
2018-Jun-23 12:30N 69°56' E 020°23'611.4
2018-Jun-23 11:58N 69°50' E 020°26'  
2018-Jun-21 06:53N 69°36' E 020°32'2 6.3
2018-Jun-21 06:30N 69°38' E 020°26'611.5
2018-Jun-21 05:58N 69°44' E 020°25'511.8
2018-Jun-21 05:30N 69°49' E 020°25'611.8
2018-Jun-21 05:00N 69°55' E 020°25'611.8
2018-Jun-21 04:30N 70°01' E 020°19'511.1
2018-Jun-21 04:00N 70°06' E 020°12'4 7.6
2018-Jun-21 03:30N 70°10' E 020°16'4 7.5
2018-Jun-21 03:00N 70°13' E 020°20'4 7.5
2018-Jun-21 02:30N 70°17' E 020°23'4 7.8
2018-Jun-21 02:00N 70°21' E 020°22'4 7.8
2018-Jun-21 01:30N 70°25' E 020°22'4 7.2
2018-Jun-21 01:00N 70°28' E 020°18'4 8.0
2018-Jun-21 00:30N 70°28' E 020°06'4 8.2
2018-Jun-21 00:00N 70°28' E 019°54'4 8.4
2018-Jun-20 23:30N 70°26' E 019°43'4 8.5
2018-Jun-20 23:00N 70°25' E 019°31'5 9.1
2018-Jun-20 22:30N 70°23' E 019°18'5 9.6
2018-Jun-20 22:00N 70°21' E 019°05'5 9.8
2018-Jun-20 21:29N 70°19' E 018°51'510.3
2018-Jun-20 20:59N 70°17' E 018°36'510.0
2018-Jun-20 20:30N 70°15' E 018°25'5 9.7
2018-Jun-20 19:59N 70°11' E 018°14'5 9.7
2018-Jun-20 19:30N 70°08' E 018°05'510.1
2018-Jun-20 19:00N 70°04' E 017°54'5 9.9
2018-Jun-20 18:30N 70°01' E 017°43'510.1
2018-Jun-20 17:59N 69°57' E 017°32'510.3
2018-Jun-20 17:30N 69°54' E 017°21'510.2
2018-Jun-20 17:00N 69°50' E 017°11'510.3
2018-Jun-20 16:30N 69°47' E 016°60'510.6
2018-Jun-20 16:00N 69°43' E 016°49'510.7
2018-Jun-20 15:30N 69°40' E 016°38'510.6
2018-Jun-20 14:59N 69°36' E 016°26'510.4
2018-Jun-20 14:30N 69°32' E 016°15'510.6
2018-Jun-20 14:00N 69°29' E 016°05'611.2
2018-Jun-20 13:30N 69°25' E 015°53'511.0
2018-Jun-20 13:00N 69°21' E 015°42'611.6
2018-Jun-20 12:30N 69°17' E 015°29'611.6
2018-Jun-20 12:00N 69°13' E 015°18'611.9
2018-Jun-20 11:30N 69°09' E 015°05'611.1
2018-Jun-20 11:00N 69°05' E 014°54'611.1
2018-Jun-20 10:30N 69°01' E 014°44'612.1
2018-Jun-20 10:00N 68°56' E 014°33'612.3
2018-Jun-20 09:31N 68°52' E 014°23'712.5
2018-Jun-20 08:59N 68°47' E 014°11'612.6
2018-Jun-20 08:30N 68°42' E 014°00'612.0
2018-Jun-20 08:00N 68°37' E 013°50'611.9
2018-Jun-20 07:30N 68°33' E 013°40'611.9
2018-Jun-20 07:00N 68°28' E 013°30'611.8
2018-Jun-20 06:30N 68°23' E 013°20'611.8
2018-Jun-20 06:00N 68°19' E 013°10'611.9
2018-Jun-20 05:30N 68°14' E 013°01'611.9
2018-Jun-20 05:00N 68°09' E 012°51'612.0
2018-Jun-20 04:30N 68°04' E 012°42'612.0
2018-Jun-20 04:00N 67°59' E 012°32'611.9
2018-Jun-20 03:29N 67°54' E 012°23'22811.8
2018-Jun-19 08:11N 64°16' E 009°34'211.8
2018-Jun-19 07:59N 64°14' E 009°33'611.6
2018-Jun-19 07:30N 64°09' E 009°30'611.7
2018-Jun-19 07:00N 64°03' E 009°26'612.1
2018-Jun-19 06:30N 63°58' E 009°22'611.9
2018-Jun-19 06:00N 63°52' E 009°18'612.2
2018-Jun-19 05:30N 63°46' E 009°13'5 9.6
2018-Jun-19 05:00N 63°41' E 009°11'612.0
2018-Jun-19 04:29N 63°37' E 009°21'612.1
2018-Jun-19 03:59N 63°38' E 009°35'510.6
2018-Jun-19 03:30N 63°39' E 009°46'612.1
2018-Jun-19 03:00N 63°33' E 009°52'611.1
2018-Jun-19 02:30N 63°29' E 009°60'612.0
2018-Jun-19 02:00N 63°31' E 010°13'611.8
2018-Jun-19 01:30N 63°33' E 010°25'611.3
2018-Jun-19 01:00N 63°37' E 010°35'611.9
2018-Jun-19 00:30N 63°40' E 010°45'612.1
2018-Jun-19 00:00N 63°44' E 010°57'611.7
2018-Jun-18 23:29N 63°49' E 011°04'511.2
2018-Jun-18 23:00N 63°54' E 011°04'612.0
2018-Jun-18 22:30N 63°58' E 011°14'611.8
2018-Jun-18 22:00N 64°00' E 011°27'1 2.0
2018-Jun-18 21:30N 64°01' E 011°29'0 0.0
2018-Jun-18 21:00N 64°01' E 011°29'0 0.0
2018-Jun-18 20:30N 64°01' E 011°29'0 0.0
2018-Jun-18 20:00N 64°01' E 011°29'0 0.0
2018-Jun-18 19:30N 64°01' E 011°29'0 0.0
2018-Jun-18 19:00N 64°01' E 011°29'0 0.0
2018-Jun-18 18:30N 64°01' E 011°29'0 0.0
2018-Jun-18 18:00N 64°01' E 011°29'0 0.0
2018-Jun-18 17:30N 64°01' E 011°29'0 0.0
2018-Jun-18 17:00N 64°01' E 011°29'0 0.0
2018-Jun-18 16:27N 64°01' E 011°29'0 0.0
2018-Jun-18 16:00N 64°01' E 011°29'0 0.0
2018-Jun-18 15:30N 64°01' E 011°29'0 0.0
2018-Jun-18 14:57N 64°01' E 011°29'0 0.0
2018-Jun-18 14:30N 64°01' E 011°29'0 0.0
2018-Jun-18 14:00N 64°01' E 011°29'0 0.0
2018-Jun-18 13:30N 64°01' E 011°29'0 0.0
2018-Jun-18 13:00N 64°01' E 011°29'0 0.0
2018-Jun-18 12:30N 64°01' E 011°29'0 0.0
2018-Jun-18 12:00N 64°01' E 011°29'0 0.0
2018-Jun-18 11:30N 64°01' E 011°29'0 0.0
2018-Jun-18 11:00N 64°01' E 011°29'0 0.0
2018-Jun-18 10:30N 64°01' E 011°29'0 0.0
2018-Jun-18 10:00N 64°01' E 011°29'0 0.0
2018-Jun-18 09:30N 64°01' E 011°29'0 0.0
2018-Jun-18 08:57N 64°01' E 011°29'0 0.0
2018-Jun-18 08:24N 64°01' E 011°29'0 0.0
2018-Jun-18 08:00N 64°01' E 011°29'0 0.0
2018-Jun-18 07:30N 64°01' E 011°29'0 0.0
2018-Jun-18 07:00N 64°01' E 011°29'0 0.0
2018-Jun-18 06:27N 64°01' E 011°29'0 0.0
2018-Jun-18 06:00N 64°01' E 011°29'0 0.0
2018-Jun-18 05:30N 64°01' E 011°29'0 0.0
2018-Jun-18 05:00N 64°01' E 011°29'0 0.0
2018-Jun-18 04:30N 64°01' E 011°29'0 0.0
2018-Jun-18 04:00N 64°01' E 011°29'0 0.0
2018-Jun-18 03:30N 64°01' E 011°29'0 0.0
2018-Jun-18 03:00N 64°01' E 011°29'0 0.0
2018-Jun-18 02:27N 64°01' E 011°29'0 0.0
2018-Jun-18 02:00N 64°01' E 011°29'0 0.0
2018-Jun-18 01:30N 64°01' E 011°29'0 0.0
2018-Jun-18 01:00N 64°01' E 011°29'0 0.0
2018-Jun-18 00:30N 64°01' E 011°29'0 0.0
2018-Jun-18 00:00N 64°01' E 011°29'0 0.0
2018-Jun-17 23:30N 64°01' E 011°29'0 0.0
2018-Jun-17 23:00N 64°01' E 011°29'0 0.0
2018-Jun-17 22:30N 64°01' E 011°29'0 0.0
2018-Jun-17 22:00N 64°01' E 011°29'0 0.0
2018-Jun-17 21:30N 64°01' E 011°29'0 0.0
2018-Jun-17 21:00N 64°01' E 011°29'0 0.0
2018-Jun-17 20:30N 64°01' E 011°29'0 0.0
2018-Jun-17 20:00N 64°01' E 011°29'0 0.0
2018-Jun-17 19:30N 64°01' E 011°29'0 0.0
2018-Jun-17 19:00N 64°01' E 011°29'0 0.0
2018-Jun-17 18:27N 64°01' E 011°29'0 0.0
2018-Jun-17 17:57N 64°01' E 011°29'0 0.0
2018-Jun-17 17:30N 64°01' E 011°29'0 0.0
2018-Jun-17 17:00N 64°01' E 011°29'0 0.0
2018-Jun-17 16:30N 64°01' E 011°29'0 0.0
2018-Jun-17 16:00N 64°01' E 011°29'0 0.0
2018-Jun-17 15:30N 64°01' E 011°29'0 0.0
2018-Jun-17 15:00N 64°01' E 011°29'0 0.0
2018-Jun-17 14:30N 64°01' E 011°29'0 0.0
2018-Jun-17 14:00N 64°01' E 011°29'0 0.0
2018-Jun-17 13:27N 64°01' E 011°29'0 0.0
2018-Jun-17 13:00N 64°01' E 011°29'0 0.0
2018-Jun-17 12:30N 64°01' E 011°29'0 0.0
2018-Jun-17 12:00N 64°01' E 011°29'0 0.0
2018-Jun-17 11:30N 64°01' E 011°29'0 0.0
2018-Jun-17 11:00N 64°01' E 011°29'0 0.0
2018-Jun-17 10:24N 64°01' E 011°29'0 0.0
2018-Jun-17 10:00N 64°01' E 011°29'0 0.0
2018-Jun-17 09:30N 64°01' E 011°29'0 0.0
2018-Jun-17 09:00N 64°01' E 011°29'0 0.0
2018-Jun-17 08:30N 64°01' E 011°29'0 0.0
2018-Jun-17 08:00N 64°01' E 011°29'0 0.0
2018-Jun-17 07:30N 64°01' E 011°29'0 0.0
2018-Jun-17 07:00N 64°01' E 011°29'0 0.0
2018-Jun-17 06:30N 64°01' E 011°29'0 0.0
2018-Jun-17 06:00N 64°01' E 011°29'0 0.0
2018-Jun-17 05:30N 64°01' E 011°29'0 0.0
2018-Jun-17 05:00N 64°01' E 011°29'0 0.0
2018-Jun-17 04:30N 64°01' E 011°29'0 0.0
2018-Jun-17 04:00N 64°01' E 011°29'0 0.0
2018-Jun-17 03:30N 64°01' E 011°29'0 0.0
2018-Jun-17 03:00N 64°01' E 011°29'0 0.0
2018-Jun-17 02:30N 64°01' E 011°29'0 0.0
2018-Jun-17 02:00N 64°01' E 011°29'0 0.0
2018-Jun-17 01:30N 64°01' E 011°29'0 0.0
2018-Jun-17 01:00N 64°01' E 011°29'0 0.0
2018-Jun-17 00:30N 64°01' E 011°29'0 0.0
2018-Jun-17 00:00N 64°01' E 011°29'0 0.0
2018-Jun-16 23:30N 64°01' E 011°29'0 0.0
2018-Jun-16 23:00N 64°01' E 011°29'0 0.0
2018-Jun-16 22:30N 64°01' E 011°29'1 2.7
2018-Jun-16 21:58N 64°00' E 011°26'511.1
2018-Jun-16 21:29N 63°58' E 011°14'511.4
2018-Jun-16 21:00N 63°54' E 011°05'510.7
2018-Jun-16 20:30N 63°49' E 011°04'611.8
2018-Jun-16 20:00N 63°44' E 010°57'611.2
2018-Jun-16 19:30N 63°40' E 010°47'511.0
2018-Jun-16 19:00N 63°37' E 010°38'611.0
2018-Jun-16 18:29N 63°33' E 010°29'511.1
2018-Jun-16 18:00N 63°29' E 010°21'4 7.5
2018-Jun-16 17:30N 63°28' E 010°13'612.1
2018-Jun-16 17:00N 63°29' E 009°60'510.9
2018-Jun-16 16:30N 63°33' E 009°52'611.8
2018-Jun-16 16:00N 63°38' E 009°47'4 8.7
2018-Jun-16 15:30N 63°38' E 009°37'611.0
2018-Jun-16 15:00N 63°35' E 009°26'612.2
2018-Jun-16 14:30N 63°32' E 009°14'612.6
2018-Jun-16 14:00N 63°29' E 009°02'612.9
2018-Jun-16 13:30N 63°27' E 008°49'713.0
2018-Jun-16 12:59N 63°24' E 008°35'713.4
2018-Jun-16 12:30N 63°21' E 008°22'613.0
2018-Jun-16 12:00N 63°17' E 008°11'613.0
2018-Jun-16 11:30N 63°14' E 007°58'612.5
2018-Jun-16 11:00N 63°14' E 007°45'611.9
2018-Jun-16 10:30N 63°14' E 007°31'612.1
2018-Jun-16 10:00N 63°11' E 007°20'612.2
2018-Jun-16 09:30N 63°09' E 007°08'611.8
2018-Jun-16 09:00N 63°05' E 006°57'611.6
2018-Jun-16 08:28N 63°02' E 006°46'611.7
2018-Jun-16 07:59N 62°58' E 006°36'612.1
2018-Jun-16 07:30N 62°55' E 006°26'612.0
2018-Jun-16 07:00N 62°51' E 006°15'612.2
2018-Jun-16 06:29N 62°47' E 006°05'611.9
2018-Jun-16 06:00N 62°43' E 005°56'611.8
2018-Jun-16 05:30N 62°39' E 005°47'611.6
2018-Jun-16 05:00N 62°35' E 005°38'611.5
2018-Jun-16 04:30N 62°31' E 005°28'611.4
2018-Jun-16 03:59N 62°27' E 005°20'511.0
2018-Jun-16 03:30N 62°23' E 005°12'510.9
2018-Jun-16 03:00N 62°18' E 005°06'611.5
2018-Jun-16 02:30N 62°13' E 005°00'611.3
2018-Jun-16 02:00N 62°08' E 004°54'611.3
2018-Jun-16 01:30N 62°03' E 004°49'611.3
2018-Jun-16 01:00N 61°58' E 004°44'611.2
2018-Jun-16 00:30N 61°53' E 004°38'611.3
2018-Jun-16 00:00N 61°48' E 004°33'611.1
2018-Jun-15 23:29N 61°43' E 004°28'611.3
2018-Jun-15 23:00N 61°37' E 004°25'611.7
2018-Jun-15 22:30N 61°32' E 004°22'611.5
2018-Jun-15 22:00N 61°26' E 004°20'611.3
2018-Jun-15 21:30N 61°20' E 004°18'1511.6
2018-Jun-15 20:10N 61°05' E 004°15'211.9
2018-Jun-15 20:00N 61°03' E 004°15'612.0
2018-Jun-15 19:30N 60°57' E 004°17'611.9
2018-Jun-15 18:59N 60°51' E 004°18'611.9
2018-Jun-15 18:29N 60°45' E 004°19'  
Track history (hours):
 
Tides and Currents Weather Stations Pressure Air Temp Water Temp Dewpoint Dewpoint Depression Visibility Wind Speed Wind Dir Waves Ship Positions

Wilson Hook

Last reported at 2018-Jun-25 08:00 UTC. Time now 2018-Jun-25 08:20 UTC.
Position N 70°59' E 026°11'.

Length 90 m; draft 5.7 m.

Type: Ship. MMSI: 210604000.

Date/timePositionNaut miles runAvg speedWind from/ knotsBaromVisibWave heightAir tempDewpointWater temp
2018-Jun-25 08:00N 70°59' E 026°11'5 9.3
2018-Jun-25 07:30N 71°01' E 026°23'5 9.7
2018-Jun-25 06:59N 71°03' E 026°38'510.9
2018-Jun-25 06:30N 71°04' E 026°53'610.9
2018-Jun-25 06:00N 71°06' E 027°09'510.3
2018-Jun-25 05:30N 71°08' E 027°24'510.2
2018-Jun-25 04:59N 71°10' E 027°39'5 9.6
2018-Jun-25 04:31N 71°09' E 027°53'510.1
2018-Jun-25 04:00N 71°08' E 028°09'5 9.5
2018-Jun-25 03:30N 71°06' E 028°21'510.5
2018-Jun-25 03:00N 71°02' E 028°32'5 9.5
2018-Jun-25 02:30N 70°58' E 028°37'510.3
2018-Jun-25 02:00N 70°52' E 028°34'511.1
2018-Jun-25 01:30N 70°47' E 028°31'611.3
2018-Jun-25 01:00N 70°41' E 028°27'611.4
2018-Jun-25 00:29N 70°36' E 028°24'4 8.3
2018-Jun-24 23:59N 70°32' E 028°26'3 7.2
2018-Jun-24 23:30N 70°28' E 028°29'0 0.0
2018-Jun-24 23:00N 70°28' E 028°29'0 0.0
2018-Jun-24 22:30N 70°28' E 028°29'0 0.0
2018-Jun-24 22:00N 70°28' E 028°29'0 0.0
2018-Jun-24 21:30N 70°28' E 028°29'0 0.0
2018-Jun-24 21:00N 70°28' E 028°29'0 0.0
2018-Jun-24 20:30N 70°28' E 028°29'0 0.0
2018-Jun-24 20:00N 70°28' E 028°29'0 0.0
2018-Jun-24 19:30N 70°28' E 028°29'0 0.0
2018-Jun-24 19:00N 70°28' E 028°29'0 0.0
2018-Jun-24 18:30N 70°28' E 028°29'0 0.0
2018-Jun-24 18:00N 70°28' E 028°29'0 0.0
2018-Jun-24 17:30N 70°28' E 028°29'0 0.0
2018-Jun-24 17:00N 70°28' E 028°29'0 0.0
2018-Jun-24 16:30N 70°28' E 028°29'0 0.0
2018-Jun-24 16:00N 70°28' E 028°29'0 0.0
2018-Jun-24 15:30N 70°28' E 028°29'0 0.0
2018-Jun-24 15:00N 70°28' E 028°29'0 0.0
2018-Jun-24 14:30N 70°28' E 028°29'0 0.0
2018-Jun-24 14:00N 70°28' E 028°29'0 0.0
2018-Jun-24 13:30N 70°28' E 028°29'0 0.0
2018-Jun-24 13:00N 70°28' E 028°29'0 0.0
2018-Jun-24 12:30N 70°28' E 028°29'0 0.0
2018-Jun-24 12:00N 70°28' E 028°29'0 0.0
2018-Jun-24 11:31N 70°28' E 028°29'2 3.0
2018-Jun-24 11:00N 70°30' E 028°29'4 7.9
2018-Jun-24 10:30N 70°33' E 028°21'510.7
2018-Jun-24 10:00N 70°38' E 028°25'611.0
2018-Jun-24 09:29N 70°43' E 028°29'510.8
2018-Jun-24 09:00N 70°49' E 028°32'611.5
2018-Jun-24 08:29N 70°55' E 028°35'511.1
2018-Jun-24 08:00N 70°60' E 028°36'611.6
2018-Jun-24 07:30N 71°04' E 028°25'610.9
2018-Jun-24 06:59N 71°08' E 028°11'611.5
2018-Jun-24 06:30N 71°08' E 027°54'510.9
2018-Jun-24 06:00N 71°09' E 027°37'611.6
2018-Jun-24 05:31N 71°07' E 027°20'612.1
2018-Jun-24 04:59N 71°05' E 027°02'611.6
2018-Jun-24 04:30N 71°03' E 026°46'611.7
2018-Jun-24 04:00N 71°01' E 026°29'611.7
2018-Jun-24 03:30N 70°58' E 026°12'5 9.4
2018-Jun-24 03:00N 70°58' E 025°58'4 8.5
2018-Jun-24 02:31N 70°59' E 026°10'5 9.1
2018-Jun-24 02:00N 71°03' E 026°17'611.3
2018-Jun-24 01:30N 71°08' E 026°07'611.4
2018-Jun-24 01:00N 71°11' E 025°53'612.3
2018-Jun-24 00:29N 71°12' E 025°33'612.7
2018-Jun-24 00:00N 71°12' E 025°14'612.0
2018-Jun-23 23:30N 71°11' E 024°55'611.7
2018-Jun-23 23:00N 71°10' E 024°38'611.8
2018-Jun-23 22:30N 71°09' E 024°19'612.2
2018-Jun-23 22:00N 71°08' E 024°01'611.7
2018-Jun-23 21:29N 71°06' E 023°44'611.9
2018-Jun-23 21:00N 71°04' E 023°28'612.0
2018-Jun-23 20:30N 71°01' E 023°11'612.2
2018-Jun-23 20:00N 70°58' E 022°55'612.0
2018-Jun-23 19:29N 70°55' E 022°39'612.0
2018-Jun-23 18:59N 70°52' E 022°23'612.3
2018-Jun-23 18:30N 70°49' E 022°07'612.2
2018-Jun-23 18:00N 70°46' E 021°51'612.0
2018-Jun-23 17:29N 70°41' E 021°38'611.5
2018-Jun-23 17:00N 70°37' E 021°27'611.7
2018-Jun-23 16:30N 70°33' E 021°16'611.7
2018-Jun-23 16:00N 70°28' E 021°05'611.4
2018-Jun-23 15:30N 70°24' E 020°54'611.3
2018-Jun-23 15:01N 70°19' E 020°43'611.7
2018-Jun-23 14:30N 70°15' E 020°32'611.6
2018-Jun-23 13:59N 70°10' E 020°21'511.2
2018-Jun-23 13:30N 70°05' E 020°14'4 8.7
2018-Jun-23 13:00N 70°01' E 020°18'511.1
2018-Jun-23 12:30N 69°56' E 020°23'611.4
2018-Jun-23 11:58N 69°50' E 020°26'  
2018-Jun-21 06:53N 69°36' E 020°32'2 6.3
2018-Jun-21 06:30N 69°38' E 020°26'611.5
2018-Jun-21 05:58N 69°44' E 020°25'511.8
2018-Jun-21 05:30N 69°49' E 020°25'611.8
2018-Jun-21 05:00N 69°55' E 020°25'611.8
2018-Jun-21 04:30N 70°01' E 020°19'511.1
2018-Jun-21 04:00N 70°06' E 020°12'4 7.6
2018-Jun-21 03:30N 70°10' E 020°16'4 7.5
2018-Jun-21 03:00N 70°13' E 020°20'4 7.5
2018-Jun-21 02:30N 70°17' E 020°23'4 7.8
2018-Jun-21 02:00N 70°21' E 020°22'4 7.8
2018-Jun-21 01:30N 70°25' E 020°22'4 7.2
2018-Jun-21 01:00N 70°28' E 020°18'4 8.0
2018-Jun-21 00:30N 70°28' E 020°06'4 8.2
2018-Jun-21 00:00N 70°28' E 019°54'4 8.4
2018-Jun-20 23:30N 70°26' E 019°43'4 8.5
2018-Jun-20 23:00N 70°25' E 019°31'5 9.1
2018-Jun-20 22:30N 70°23' E 019°18'5 9.6
2018-Jun-20 22:00N 70°21' E 019°05'5 9.8
2018-Jun-20 21:29N 70°19' E 018°51'510.3
2018-Jun-20 20:59N 70°17' E 018°36'510.0
2018-Jun-20 20:30N 70°15' E 018°25'5 9.7
2018-Jun-20 19:59N 70°11' E 018°14'5 9.7
2018-Jun-20 19:30N 70°08' E 018°05'510.1
2018-Jun-20 19:00N 70°04' E 017°54'5 9.9
2018-Jun-20 18:30N 70°01' E 017°43'510.1
2018-Jun-20 17:59N 69°57' E 017°32'510.3
2018-Jun-20 17:30N 69°54' E 017°21'510.2
2018-Jun-20 17:00N 69°50' E 017°11'510.3
2018-Jun-20 16:30N 69°47' E 016°60'510.6
2018-Jun-20 16:00N 69°43' E 016°49'510.7
2018-Jun-20 15:30N 69°40' E 016°38'510.6
2018-Jun-20 14:59N 69°36' E 016°26'510.4
2018-Jun-20 14:30N 69°32' E 016°15'510.6
2018-Jun-20 14:00N 69°29' E 016°05'611.2
2018-Jun-20 13:30N 69°25' E 015°53'511.0
2018-Jun-20 13:00N 69°21' E 015°42'611.6
2018-Jun-20 12:30N 69°17' E 015°29'611.6
2018-Jun-20 12:00N 69°13' E 015°18'611.9
2018-Jun-20 11:30N 69°09' E 015°05'611.1
2018-Jun-20 11:00N 69°05' E 014°54'611.1
2018-Jun-20 10:30N 69°01' E 014°44'612.1
2018-Jun-20 10:00N 68°56' E 014°33'612.3
2018-Jun-20 09:31N 68°52' E 014°23'712.5
2018-Jun-20 08:59N 68°47' E 014°11'612.6
2018-Jun-20 08:30N 68°42' E 014°00'612.0
2018-Jun-20 08:00N 68°37' E 013°50'611.9
2018-Jun-20 07:30N 68°33' E 013°40'611.9
2018-Jun-20 07:00N 68°28' E 013°30'611.8
2018-Jun-20 06:30N 68°23' E 013°20'611.8
2018-Jun-20 06:00N 68°19' E 013°10'611.9
2018-Jun-20 05:30N 68°14' E 013°01'611.9
2018-Jun-20 05:00N 68°09' E 012°51'612.0
2018-Jun-20 04:30N 68°04' E 012°42'612.0
2018-Jun-20 04:00N 67°59' E 012°32'611.9
2018-Jun-20 03:29N 67°54' E 012°23'22811.8
2018-Jun-19 08:11N 64°16' E 009°34'211.8
2018-Jun-19 07:59N 64°14' E 009°33'611.6
2018-Jun-19 07:30N 64°09' E 009°30'611.7
2018-Jun-19 07:00N 64°03' E 009°26'612.1
2018-Jun-19 06:30N 63°58' E 009°22'611.9
2018-Jun-19 06:00N 63°52' E 009°18'612.2
2018-Jun-19 05:30N 63°46' E 009°13'5 9.6
2018-Jun-19 05:00N 63°41' E 009°11'612.0
2018-Jun-19 04:29N 63°37' E 009°21'612.1
2018-Jun-19 03:59N 63°38' E 009°35'510.6
2018-Jun-19 03:30N 63°39' E 009°46'612.1
2018-Jun-19 03:00N 63°33' E 009°52'611.1
2018-Jun-19 02:30N 63°29' E 009°60'612.0
2018-Jun-19 02:00N 63°31' E 010°13'611.8
2018-Jun-19 01:30N 63°33' E 010°25'611.3
2018-Jun-19 01:00N 63°37' E 010°35'611.9
2018-Jun-19 00:30N 63°40' E 010°45'612.1
2018-Jun-19 00:00N 63°44' E 010°57'611.7
2018-Jun-18 23:29N 63°49' E 011°04'511.2
2018-Jun-18 23:00N 63°54' E 011°04'612.0
2018-Jun-18 22:30N 63°58' E 011°14'611.8
2018-Jun-18 22:00N 64°00' E 011°27'1 2.0
2018-Jun-18 21:30N 64°01' E 011°29'0 0.0
2018-Jun-18 21:00N 64°01' E 011°29'0 0.0
2018-Jun-18 20:30N 64°01' E 011°29'0 0.0
2018-Jun-18 20:00N 64°01' E 011°29'0 0.0
2018-Jun-18 19:30N 64°01' E 011°29'0 0.0
2018-Jun-18 19:00N 64°01' E 011°29'0 0.0
2018-Jun-18 18:30N 64°01' E 011°29'0 0.0
2018-Jun-18 18:00N 64°01' E 011°29'0 0.0
2018-Jun-18 17:30N 64°01' E 011°29'0 0.0
2018-Jun-18 17:00N 64°01' E 011°29'0 0.0
2018-Jun-18 16:27N 64°01' E 011°29'0 0.0
2018-Jun-18 16:00N 64°01' E 011°29'0 0.0
2018-Jun-18 15:30N 64°01' E 011°29'0 0.0
2018-Jun-18 14:57N 64°01' E 011°29'0 0.0
2018-Jun-18 14:30N 64°01' E 011°29'0 0.0
2018-Jun-18 14:00N 64°01' E 011°29'0 0.0
2018-Jun-18 13:30N 64°01' E 011°29'0 0.0
2018-Jun-18 13:00N 64°01' E 011°29'0 0.0
2018-Jun-18 12:30N 64°01' E 011°29'0 0.0
2018-Jun-18 12:00N 64°01' E 011°29'0 0.0
2018-Jun-18 11:30N 64°01' E 011°29'0 0.0
2018-Jun-18 11:00N 64°01' E 011°29'0 0.0
2018-Jun-18 10:30N 64°01' E 011°29'0 0.0
2018-Jun-18 10:00N 64°01' E 011°29'0 0.0
2018-Jun-18 09:30N 64°01' E 011°29'0 0.0
2018-Jun-18 08:57N 64°01' E 011°29'0 0.0
2018-Jun-18 08:24N 64°01' E 011°29'0 0.0
2018-Jun-18 08:00N 64°01' E 011°29'0 0.0
2018-Jun-18 07:30N 64°01' E 011°29'0 0.0
2018-Jun-18 07:00N 64°01' E 011°29'0 0.0
2018-Jun-18 06:27N 64°01' E 011°29'0 0.0
2018-Jun-18 06:00N 64°01' E 011°29'0 0.0
2018-Jun-18 05:30N 64°01' E 011°29'0 0.0
2018-Jun-18 05:00N 64°01' E 011°29'0 0.0
2018-Jun-18 04:30N 64°01' E 011°29'0 0.0
2018-Jun-18 04:00N 64°01' E 011°29'0 0.0
2018-Jun-18 03:30N 64°01' E 011°29'0 0.0
2018-Jun-18 03:00N 64°01' E 011°29'0 0.0
2018-Jun-18 02:27N 64°01' E 011°29'0 0.0
2018-Jun-18 02:00N 64°01' E 011°29'0 0.0
2018-Jun-18 01:30N 64°01' E 011°29'0 0.0
2018-Jun-18 01:00N 64°01' E 011°29'0 0.0
2018-Jun-18 00:30N 64°01' E 011°29'0 0.0
2018-Jun-18 00:00N 64°01' E 011°29'0 0.0
2018-Jun-17 23:30N 64°01' E 011°29'0 0.0
2018-Jun-17 23:00N 64°01' E 011°29'0 0.0
2018-Jun-17 22:30N 64°01' E 011°29'0 0.0
2018-Jun-17 22:00N 64°01' E 011°29'0 0.0
2018-Jun-17 21:30N 64°01' E 011°29'0 0.0
2018-Jun-17 21:00N 64°01' E 011°29'0 0.0
2018-Jun-17 20:30N 64°01' E 011°29'0 0.0
2018-Jun-17 20:00N 64°01' E 011°29'0 0.0
2018-Jun-17 19:30N 64°01' E 011°29'0 0.0
2018-Jun-17 19:00N 64°01' E 011°29'0 0.0
2018-Jun-17 18:27N 64°01' E 011°29'0 0.0
2018-Jun-17 17:57N 64°01' E 011°29'0 0.0
2018-Jun-17 17:30N 64°01' E 011°29'0 0.0
2018-Jun-17 17:00N 64°01' E 011°29'0 0.0
2018-Jun-17 16:30N 64°01' E 011°29'0 0.0
2018-Jun-17 16:00N 64°01' E 011°29'0 0.0
2018-Jun-17 15:30N 64°01' E 011°29'0 0.0
2018-Jun-17 15:00N 64°01' E 011°29'0 0.0
2018-Jun-17 14:30N 64°01' E 011°29'0 0.0
2018-Jun-17 14:00N 64°01' E 011°29'0 0.0
2018-Jun-17 13:27N 64°01' E 011°29'0 0.0
2018-Jun-17 13:00N 64°01' E 011°29'0 0.0
2018-Jun-17 12:30N 64°01' E 011°29'0 0.0
2018-Jun-17 12:00N 64°01' E 011°29'0 0.0
2018-Jun-17 11:30N 64°01' E 011°29'0 0.0
2018-Jun-17 11:00N 64°01' E 011°29'0 0.0
2018-Jun-17 10:24N 64°01' E 011°29'0 0.0
2018-Jun-17 10:00N 64°01' E 011°29'0 0.0
2018-Jun-17 09:30N 64°01' E 011°29'0 0.0
2018-Jun-17 09:00N 64°01' E 011°29'0 0.0
2018-Jun-17 08:30N 64°01' E 011°29'0 0.0
2018-Jun-17 08:00N 64°01' E 011°29'0 0.0
2018-Jun-17 07:30N 64°01' E 011°29'0 0.0
2018-Jun-17 07:00N 64°01' E 011°29'0 0.0
2018-Jun-17 06:30N 64°01' E 011°29'0 0.0
2018-Jun-17 06:00N 64°01' E 011°29'0 0.0
2018-Jun-17 05:30N 64°01' E 011°29'0 0.0
2018-Jun-17 05:00N 64°01' E 011°29'0 0.0
2018-Jun-17 04:30N 64°01' E 011°29'0 0.0
2018-Jun-17 04:00N 64°01' E 011°29'0 0.0
2018-Jun-17 03:30N 64°01' E 011°29'0 0.0
2018-Jun-17 03:00N 64°01' E 011°29'0 0.0
2018-Jun-17 02:30N 64°01' E 011°29'0 0.0
2018-Jun-17 02:00N 64°01' E 011°29'0 0.0
2018-Jun-17 01:30N 64°01' E 011°29'0 0.0
2018-Jun-17 01:00N 64°01' E 011°29'0 0.0
2018-Jun-17 00:30N 64°01' E 011°29'0 0.0
2018-Jun-17 00:00N 64°01' E 011°29'0 0.0
2018-Jun-16 23:30N 64°01' E 011°29'0 0.0
2018-Jun-16 23:00N 64°01' E 011°29'0 0.0
2018-Jun-16 22:30N 64°01' E 011°29'1 2.7
2018-Jun-16 21:58N 64°00' E 011°26'511.1
2018-Jun-16 21:29N 63°58' E 011°14'511.4
2018-Jun-16 21:00N 63°54' E 011°05'510.7
2018-Jun-16 20:30N 63°49' E 011°04'611.8
2018-Jun-16 20:00N 63°44' E 010°57'611.2
2018-Jun-16 19:30N 63°40' E 010°47'511.0
2018-Jun-16 19:00N 63°37' E 010°38'611.0
2018-Jun-16 18:29N 63°33' E 010°29'511.1
2018-Jun-16 18:00N 63°29' E 010°21'4 7.5
2018-Jun-16 17:30N 63°28' E 010°13'612.1
2018-Jun-16 17:00N 63°29' E 009°60'510.9
2018-Jun-16 16:30N 63°33' E 009°52'611.8
2018-Jun-16 16:00N 63°38' E 009°47'4 8.7
2018-Jun-16 15:30N 63°38' E 009°37'611.0
2018-Jun-16 15:00N 63°35' E 009°26'612.2
2018-Jun-16 14:30N 63°32' E 009°14'612.6
2018-Jun-16 14:00N 63°29' E 009°02'612.9
2018-Jun-16 13:30N 63°27' E 008°49'713.0
2018-Jun-16 12:59N 63°24' E 008°35'713.4
2018-Jun-16 12:30N 63°21' E 008°22'613.0
2018-Jun-16 12:00N 63°17' E 008°11'613.0
2018-Jun-16 11:30N 63°14' E 007°58'612.5
2018-Jun-16 11:00N 63°14' E 007°45'611.9
2018-Jun-16 10:30N 63°14' E 007°31'612.1
2018-Jun-16 10:00N 63°11' E 007°20'612.2
2018-Jun-16 09:30N 63°09' E 007°08'611.8
2018-Jun-16 09:00N 63°05' E 006°57'611.6
2018-Jun-16 08:28N 63°02' E 006°46'611.7
2018-Jun-16 07:59N 62°58' E 006°36'612.1
2018-Jun-16 07:30N 62°55' E 006°26'612.0
2018-Jun-16 07:00N 62°51' E 006°15'612.2
2018-Jun-16 06:29N 62°47' E 006°05'611.9
2018-Jun-16 06:00N 62°43' E 005°56'611.8
2018-Jun-16 05:30N 62°39' E 005°47'611.6
2018-Jun-16 05:00N 62°35' E 005°38'611.5
2018-Jun-16 04:30N 62°31' E 005°28'611.4
2018-Jun-16 03:59N 62°27' E 005°20'511.0
2018-Jun-16 03:30N 62°23' E 005°12'510.9
2018-Jun-16 03:00N 62°18' E 005°06'611.5
2018-Jun-16 02:30N 62°13' E 005°00'611.3
2018-Jun-16 02:00N 62°08' E 004°54'611.3
2018-Jun-16 01:30N 62°03' E 004°49'611.3
2018-Jun-16 01:00N 61°58' E 004°44'611.2
2018-Jun-16 00:30N 61°53' E 004°38'611.3
2018-Jun-16 00:00N 61°48' E 004°33'611.1
2018-Jun-15 23:29N 61°43' E 004°28'611.3
2018-Jun-15 23:00N 61°37' E 004°25'611.7
2018-Jun-15 22:30N 61°32' E 004°22'611.5
2018-Jun-15 22:00N 61°26' E 004°20'611.3
2018-Jun-15 21:30N 61°20' E 004°18'1511.6
2018-Jun-15 20:10N 61°05' E 004°15'211.9
2018-Jun-15 20:00N 61°03' E 004°15'612.0
2018-Jun-15 19:30N 60°57' E 004°17'611.9
2018-Jun-15 18:59N 60°51' E 004°18'611.9
2018-Jun-15 18:29N 60°45' E 004°19'  

Dump ship's entire track history